Time;durP1;ratioP1;P1;durP2;ratioP2;P2;SDS_P1;SDS_P2;PMS_P1;PMS_P2;Temp;Humidity;BMP_temperature;BMP_pressure;BME280_temperature;BME280_humidity;BME280_pressure;Samples;Min_cycle;Max_cycle;Signal;HPM_P1;HPM_P2
2023/10/01 00:00:28;;;;;;;32.60;21.10;;;;;;;11.16;100.00;100998.47;105792;1256;60430;-75
2023/10/01 00:02:59;;;;;;;36.20;21.80;;;;;;;11.13;100.00;100997.74;105872;1251;72568;-77
2023/10/01 00:05:27;;;;;;;31.60;20.60;;;;;;;11.12;100.00;100998.84;105770;1254;62608;-76
2023/10/01 00:07:54;;;;;;;29.30;20.80;;;;;;;11.11;100.00;100995.05;105977;1251;70724;-72
2023/10/01 00:10:22;;;;;;;31.30;20.80;;;;;;;11.10;100.00;100995.81;105859;1256;60499;-75
2023/10/01 00:12:50;;;;;;;34.40;21.70;;;;;;;11.08;100.00;100997.83;106038;1253;60433;-77
2023/10/01 00:15:19;;;;;;;30.80;21.80;;;;;;;11.07;100.00;100998.42;105895;1254;73896;-75
2023/10/01 00:17:48;;;;;;;27.70;20.80;;;;;;;11.06;100.00;100997.47;105690;1256;62778;-75
2023/10/01 00:20:22;;;;;;;32.30;21.20;;;;;;;11.05;100.00;100997.32;105792;1254;71418;-74
2023/10/01 00:22:52;;;;;;;28.90;21.40;;;;;;;11.03;100.00;100999.00;105691;1256;60540;-76
2023/10/01 00:25:21;;;;;;;37.10;22.90;;;;;;;11.01;100.00;100997.71;105856;1253;60674;-76
2023/10/01 00:27:50;;;;;;;28.70;20.90;;;;;;;10.99;100.00;101000.45;105934;1253;73917;-74
2023/10/01 00:30:18;;;;;;;36.40;25.10;;;;;;;10.98;100.00;100997.20;105827;1256;62605;-75
2023/10/01 00:32:46;;;;;;;32.50;23.40;;;;;;;10.97;100.00;100994.46;105829;1256;73326;-73
2023/10/01 00:35:14;;;;;;;34.80;23.20;;;;;;;10.96;100.00;100996.77;105754;1250;60806;-76
2023/10/01 00:37:41;;;;;;;32.30;22.30;;;;;;;10.94;100.00;100997.23;105834;1253;60350;-78
2023/10/01 00:40:10;;;;;;;39.80;22.30;;;;;;;10.92;100.00;100997.16;105649;1253;73843;-74
2023/10/01 00:42:39;;;;;;;42.00;22.80;;;;;;;10.89;100.00;100993.99;105950;1251;63837;-72
2023/10/01 00:45:07;;;;;;;30.10;22.00;;;;;;;10.87;100.00;100993.79;106645;1253;72003;-73
2023/10/01 00:47:36;;;;;;;31.30;22.90;;;;;;;10.83;100.00;100992.40;106013;1254;60470;-74
2023/10/01 00:50:05;;;;;;;33.10;22.20;;;;;;;10.81;100.00;100996.08;105955;1250;60364;-73
2023/10/01 00:52:33;;;;;;;33.00;22.60;;;;;;;10.78;100.00;100994.29;106174;1251;72602;-76
2023/10/01 00:55:00;;;;;;;40.20;25.00;;;;;;;10.73;100.00;100996.97;105943;1251;65101;-75
2023/10/01 00:57:28;;;;;;;39.90;25.90;;;;;;;10.70;100.00;100993.46;105846;1256;73131;-72
2023/10/01 00:59:55;;;;;;;37.90;23.70;;;;;;;10.67;100.00;100992.41;105752;1256;60807;-72
2023/10/01 01:02:23;;;;;;;37.00;25.50;;;;;;;10.66;100.00;100989.34;105816;1255;60566;-74
2023/10/01 01:05:07;;;;;;;36.10;25.10;;;;;;;10.64;100.00;100991.89;105837;1250;73461;-75
2023/10/01 01:07:42;;;;;;;42.90;25.60;;;;;;;10.63;100.00;100991.61;105948;1255;62252;-72
2023/10/01 01:10:09;;;;;;;42.20;27.00;;;;;;;10.62;100.00;100993.41;105756;1250;73055;-75
2023/10/01 01:12:38;;;;;;;43.60;27.60;;;;;;;10.61;100.00;100991.90;105788;1256;60492;-73
2023/10/01 01:15:12;;;;;;;37.60;26.20;;;;;;;10.60;100.00;100986.67;105820;1250;60456;-73
2023/10/01 01:17:41;;;;;;;45.00;28.90;;;;;;;10.60;100.00;100985.28;105761;1251;73769;-72
2023/10/01 01:20:13;;;;;;;36.10;25.30;;;;;;;10.60;100.00;100982.66;105883;1250;62208;-75
2023/10/01 01:22:51;;;;;;;40.30;26.90;;;;;;;10.60;100.00;100983.02;105805;1258;71809;-75
2023/10/01 01:25:25;;;;;;;40.50;28.10;;;;;;;10.58;100.00;100982.56;105985;1253;60510;-74
2023/10/01 01:27:57;;;;;;;41.60;27.40;;;;;;;10.57;100.00;100984.38;105949;1255;60371;-76
2023/10/01 01:30:29;;;;;;;42.80;29.30;;;;;;;10.55;100.00;100984.65;105897;1251;74002;-74
2023/10/01 01:32:57;;;;;;;47.00;30.40;;;;;;;10.51;100.00;100981.73;105777;1255;64040;-74
2023/10/01 01:35:28;;;;;;;62.70;50.10;;;;;;;10.50;100.00;100979.84;106063;1256;72853;-74
2023/10/01 01:37:58;;;;;;;74.90;59.90;;;;;;;10.50;100.00;100982.65;105810;1251;62703;-75
2023/10/01 01:40:32;;;;;;;86.20;70.50;;;;;;;10.50;100.00;100979.52;105896;1257;60353;-77
2023/10/01 01:43:04;;;;;;;84.30;68.90;;;;;;;10.49;100.00;100973.29;105812;1257;74070;-74
2023/10/01 01:45:38;;;;;;;110.10;87.70;;;;;;;10.48;100.00;100970.86;105743;1258;63285;-73
2023/10/01 01:48:21;;;;;;;124.10;98.60;;;;;;;10.46;100.00;100968.39;105844;1257;72839;-72
2023/10/01 01:50:49;;;;;;;144.90;121.80;;;;;;;10.43;100.00;100967.52;105804;1256;61200;-74
2023/10/01 01:53:19;;;;;;;147.10;128.60;;;;;;;10.40;100.00;100967.13;105803;1250;60447;-74
2023/10/01 01:55:47;;;;;;;140.70;121.90;;;;;;;10.38;100.00;100966.70;105897;1256;72842;-76
2023/10/01 01:58:23;;;;;;;119.40;103.70;;;;;;;10.35;100.00;100967.20;105706;1258;62442;-76
2023/10/01 02:03:38;;;;;;;96.00;75.70;;;;;;;10.28;100.00;100969.82;105763;1256;60623;-72
2023/10/01 02:06:07;;;;;;;92.20;72.80;;;;;;;10.25;100.00;100968.77;105886;1251;60474;-75
2023/10/01 02:08:47;;;;;;;85.90;67.70;;;;;;;10.23;100.00;100969.91;105862;1257;72845;-74
2023/10/01 02:11:21;;;;;;;83.10;61.60;;;;;;;10.22;100.00;100969.27;105899;1253;62618;-75
2023/10/01 02:13:50;;;;;;;76.90;56.80;;;;;;;10.21;100.00;100968.64;105751;1258;71432;-73
2023/10/01 02:16:30;;;;;;;66.40;47.80;;;;;;;10.18;100.00;100970.54;105822;1257;60915;-75
2023/10/01 02:19:17;;;;;;;52.70;43.00;;;;;;;10.14;100.00;100970.04;106014;1251;60409;-74
2023/10/01 02:21:52;;;;;;;61.40;46.20;;;;;;;10.10;100.00;100969.20;105969;1251;71675;-76
2023/10/01 02:24:37;;;;;;;59.50;41.50;;;;;;;10.07;100.00;100970.23;106068;1256;63561;-74
2023/10/01 02:27:06;;;;;;;59.30;38.30;;;;;;;10.05;100.00;100971.92;105748;1252;71355;-74
2023/10/01 02:29:45;;;;;;;56.70;40.20;;;;;;;10.04;100.00;100973.56;105836;1255;61751;-74
2023/10/01 02:32:14;;;;;;;59.10;41.50;;;;;;;10.02;100.00;100972.22;105680;1251;60425;-73
2023/10/01 02:34:42;;;;;;;54.60;38.00;;;;;;;10.02;100.00;100970.50;105751;1256;71739;-74
2023/10/01 02:37:10;;;;;;;60.90;37.00;;;;;;;10.01;100.00;100967.91;105805;1252;62385;-75
2023/10/01 02:39:41;;;;;;;61.50;34.70;;;;;;;10.01;100.00;100970.40;105839;1256;72203;-75
2023/10/01 02:42:09;;;;;;;58.10;35.00;;;;;;;10.00;100.00;100973.23;105811;1252;60650;-75
2023/10/01 02:44:47;;;;;;;52.80;34.00;;;;;;;10.00;100.00;100974.11;105526;1258;60540;-76
2023/10/01 02:47:18;;;;;;;49.60;34.10;;;;;;;9.99;100.00;100973.09;105773;1256;73810;-75
2023/10/01 02:49:53;;;;;;;55.10;34.10;;;;;;;9.98;100.00;100974.35;105817;1257;62321;-77
2023/10/01 02:52:36;;;;;;;;;;;;;;;9.99;100.00;100974.52;105834;1255;72858;-75
2023/10/01 02:55:17;;;;;;;51.50;33.90;;;;;;;9.98;100.00;100974.01;105850;1252;60547;-76
2023/10/01 02:57:50;;;;;;;56.40;34.70;;;;;;;9.98;100.00;100972.64;105759;1250;60402;-75
2023/10/01 03:00:30;;;;;;;50.00;34.50;;;;;;;9.98;100.00;100974.18;105976;1255;72678;-74
2023/10/01 03:02:59;;;;;;;51.90;33.60;;;;;;;9.97;100.00;100973.34;106136;1256;63990;-73
2023/10/01 03:05:28;;;;;;;52.40;34.10;;;;;;;9.97;100.00;100971.27;105910;1256;71399;-75
2023/10/01 03:08:04;;;;;;;60.60;33.20;;;;;;;9.96;100.00;100966.98;106061;1256;60570;-74
2023/10/01 03:10:32;;;;;;;44.70;30.30;;;;;;;9.93;100.00;100964.64;105969;1256;60342;-75
2023/10/01 03:13:04;;;;;;;47.70;30.30;;;;;;;9.92;100.00;100962.59;105989;1256;72642;-76
2023/10/01 03:15:35;;;;;;;44.30;29.40;;;;;;;9.91;100.00;100962.83;105869;1256;63746;-73
2023/10/01 03:18:34;;;;;;;42.70;30.10;;;;;;;9.91;100.00;100958.86;105925;1255;70412;-78
2023/10/01 03:26:25;;;;;;;46.70;29.90;;;;;;;9.82;100.00;100961.02;105744;1255;72169;-75
2023/10/01 03:31:29;;;;;;;42.30;27.90;;;;;;;9.77;100.00;100956.45;105874;1256;75489;-76
2023/10/01 03:33:58;;;;;;;45.70;29.20;;;;;;;9.74;100.00;100953.94;105926;1251;61698;-76
2023/10/01 03:36:28;;;;;;;47.20;29.00;;;;;;;9.72;100.00;100949.48;106565;1256;60441;-72
2023/10/01 03:41:55;;;;;;;47.70;29.00;;;;;;;9.71;100.00;100952.68;106341;1256;62440;-76
2023/10/01 03:47:10;;;;;;;52.20;28.70;;;;;;;9.72;100.00;100955.27;105882;1256;61822;-74
2023/10/01 03:49:43;;;;;;;45.20;28.40;;;;;;;9.70;100.00;100955.85;106026;1251;60530;-76
2023/10/01 03:52:15;;;;;;;44.70;28.30;;;;;;;9.69;100.00;100955.23;105804;1266;72736;-76
2023/10/01 03:57:27;;;;;;;47.30;29.20;;;;;;;9.69;100.00;100956.81;105777;1255;71300;-74
2023/10/01 03:59:57;;;;;;;50.30;27.00;;;;;;;9.69;100.00;100954.90;105892;1256;60564;-75
2023/10/01 04:02:28;;;;;;;43.20;27.20;;;;;;;9.70;100.00;100953.95;105847;1256;60476;-76
2023/10/01 04:04:58;;;;;;;36.60;26.60;;;;;;;9.73;100.00;100951.91;105984;1255;73859;-76
2023/10/01 04:07:46;;;;;;;43.60;27.60;;;;;;;9.76;100.00;100955.09;105811;1256;62609;-74
2023/10/01 04:10:15;;;;;;;54.90;28.60;;;;;;;9.77;100.00;100955.02;105904;1257;72683;-73
2023/10/01 04:12:58;;;;;;;43.60;27.90;;;;;;;9.79;100.00;100953.73;105908;1251;61724;-78
2023/10/01 04:15:29;;;;;;;42.90;25.80;;;;;;;9.81;100.00;100953.25;105912;1256;60367;-77
2023/10/01 04:23:41;;;;;;;41.10;26.40;;;;;;;9.89;100.00;100956.13;105851;1253;71483;-76
2023/10/01 04:26:10;;;;;;;41.40;27.40;;;;;;;9.93;100.00;100953.84;105973;1256;60453;-75
2023/10/01 04:28:44;;;;;;;43.00;28.20;;;;;;;9.98;100.00;100951.85;106166;1261;60483;-76
2023/10/01 04:31:18;;;;;;;43.30;28.60;;;;;;;10.03;100.00;100953.31;105833;1255;73108;-75
2023/10/01 04:33:50;;;;;;;53.60;30.50;;;;;;;10.09;100.00;100953.86;105943;1251;64066;-79
2023/10/01 04:36:19;;;;;;;42.20;28.80;;;;;;;10.16;100.00;100954.55;105773;1256;71460;-75
2023/10/01 04:38:51;;;;;;;42.90;30.10;;;;;;;10.24;100.00;100949.60;105853;1250;63179;-77
2023/10/01 04:41:21;;;;;;;45.40;29.40;;;;;;;10.31;100.00;100951.16;105757;1251;60331;-77
2023/10/01 04:43:55;;;;;;;45.60;30.60;;;;;;;10.38;100.00;100944.51;105787;1255;74094;-75
2023/10/01 04:46:25;;;;;;;58.60;29.80;;;;;;;10.47;100.00;100947.85;105818;1260;63301;-76
2023/10/01 04:48:54;;;;;;;39.40;29.40;;;;;;;10.63;100.00;100943.83;105821;1257;72722;-75
2023/10/01 04:51:22;;;;;;;44.80;27.00;;;;;;;10.85;100.00;100944.18;105924;1256;60984;-75
2023/10/01 04:53:51;;;;;;;46.30;27.20;;;;;;;11.03;100.00;100943.17;105839;1256;60469;-74
2023/10/01 04:56:22;;;;;;;53.30;30.20;;;;;;;11.13;100.00;100937.53;105805;1256;73766;-76
2023/10/01 04:58:54;;;;;;;50.90;27.40;;;;;;;11.22;100.00;100934.95;105977;1252;63639;-76
2023/10/01 05:01:27;;;;;;;54.40;29.20;;;;;;;11.31;100.00;100936.56;105902;1257;71423;-77
2023/10/01 05:03:56;;;;;;;53.90;29.30;;;;;;;11.41;100.00;100932.27;105880;1257;61175;-75
2023/10/01 05:06:27;;;;;;;46.80;28.70;;;;;;;11.54;100.00;100932.56;105743;1250;60330;-74
2023/10/01 05:08:58;;;;;;;49.60;28.60;;;;;;;11.64;100.00;100935.95;105880;1251;72812;-75
2023/10/01 05:11:33;;;;;;;56.90;29.80;;;;;;;11.76;100.00;100934.61;106096;1251;62475;-75
2023/10/01 05:14:04;;;;;;;51.10;28.80;;;;;;;11.92;100.00;100938.02;105796;1257;71409;-76
2023/10/01 05:16:38;;;;;;;48.20;29.30;;;;;;;12.08;100.00;100938.95;105772;1257;60550;-74
2023/10/01 05:19:15;;;;;;;46.50;27.50;;;;;;;12.30;100.00;100937.30;105859;1251;60489;-74
2023/10/01 05:21:46;;;;;;;50.10;28.20;;;;;;;12.50;100.00;100940.05;105799;1256;73986;-74
2023/10/01 05:24:35;;;;;;;55.50;28.50;;;;;;;12.67;100.00;100937.41;105936;1251;63712;-78
2023/10/01 05:27:08;;;;;;;58.10;29.90;;;;;;;12.87;100.00;100937.05;105844;1252;72669;-76
2023/10/01 05:29:39;;;;;;;66.00;31.00;;;;;;;13.21;100.00;100941.67;105856;1250;62771;-76
2023/10/01 05:32:07;;;;;;;52.70;31.30;;;;;;;13.76;100.00;100940.11;105729;1257;60442;-78
2023/10/01 05:34:38;;;;;;;62.70;38.00;;;;;;;14.37;100.00;100945.22;105876;1257;73797;-74
2023/10/01 05:37:08;;;;;;;64.60;39.80;;;;;;;15.01;100.00;100942.75;105848;1250;62779;-77
2023/10/01 05:39:55;;;;;;;52.90;32.70;;;;;;;15.74;100.00;100939.09;105847;1252;71822;-74
2023/10/01 05:42:40;;;;;;;49.70;32.10;;;;;;;16.66;100.00;100936.60;105927;1257;60510;-73
2023/10/01 05:45:18;;;;;;;51.10;30.10;;;;;;;17.44;100.00;100937.51;105852;1256;60426;-76
2023/10/01 05:47:54;;;;;;;47.80;30.10;;;;;;;18.24;100.00;100935.26;105769;1256;73924;-75
2023/10/01 05:50:28;;;;;;;45.30;29.30;;;;;;;19.01;100.00;100935.02;105830;1251;63729;-77
2023/10/01 05:52:57;;;;;;;41.50;25.10;;;;;;;19.74;100.00;100932.22;105779;1255;73124;-75
2023/10/01 05:55:24;;;;;;;34.50;25.60;;;;;;;20.41;100.00;100932.68;106144;1257;62402;-76
2023/10/01 05:57:52;;;;;;;41.40;26.50;;;;;;;21.06;99.63;100937.83;105932;1255;60531;-75
2023/10/01 06:00:26;;;;;;;37.60;24.60;;;;;;;21.68;94.76;100937.88;105997;1256;72672;-77
2023/10/01 06:03:00;;;;;;;38.20;23.60;;;;;;;22.29;90.32;100934.45;105963;1251;62609;-77
2023/10/01 06:05:33;;;;;;;38.30;25.00;;;;;;;22.85;84.82;100931.31;105781;1251;71407;-77
2023/10/01 06:08:14;;;;;;;38.30;25.00;;;;;;;23.40;76.97;100930.27;105893;1256;60415;-75
2023/10/01 06:10:59;;;;;;;36.60;24.10;;;;;;;23.97;70.57;100922.73;105870;1251;60524;-75
2023/10/01 06:13:30;;;;;;;45.20;25.30;;;;;;;24.51;65.40;100925.00;105826;1257;72730;-77
2023/10/01 06:15:58;;;;;;;36.10;24.80;;;;;;;24.98;61.83;100923.91;105819;1251;62903;-78
2023/10/01 06:18:26;;;;;;;41.00;25.40;;;;;;;25.42;58.59;100918.10;105775;1255;71337;-78
2023/10/01 06:20:54;;;;;;;40.80;25.60;;;;;;;25.83;56.17;100919.10;105801;1257;60526;-76
2023/10/01 06:23:21;;;;;;;31.70;24.50;;;;;;;26.22;54.32;100917.41;105879;1256;61471;-75
2023/10/01 06:25:53;;;;;;;38.70;25.50;;;;;;;26.59;51.32;100917.88;105898;1256;72686;-77
2023/10/01 06:28:23;;;;;;;38.60;25.80;;;;;;;26.99;49.78;100919.63;106432;1250;64372;-73
2023/10/01 06:30:51;;;;;;;46.40;26.10;;;;;;;27.36;47.73;100919.39;106082;1257;71087;-74
2023/10/01 06:33:29;;;;;;;32.70;24.40;;;;;;;27.69;46.20;100918.63;105952;1251;60543;-75
2023/10/01 06:36:15;;;;;;;36.30;26.10;;;;;;;27.98;45.01;100915.85;105931;1251;60436;-75
2023/10/01 06:38:47;;;;;;;30.90;25.00;;;;;;;28.22;43.79;100919.11;105939;1251;74154;-74
2023/10/01 06:41:19;;;;;;;38.60;25.80;;;;;;;28.48;42.97;100914.04;105972;1251;63733;-77
2023/10/01 06:43:49;;;;;;;35.30;24.70;;;;;;;28.73;42.10;100915.73;106041;1251;72755;-76
2023/10/01 06:46:21;;;;;;;33.70;24.20;;;;;;;28.93;41.66;100909.32;105733;1255;230508;-78
2023/10/01 06:50:28;;;;;;;39.30;24.70;;;;;;;29.20;40.35;100908.71;102686;1295;600979;-76
2023/10/01 06:53:00;;;;;;;35.80;25.30;;;;;;;29.33;39.96;100908.73;104861;1272;59556;-77
2023/10/01 06:55:28;;;;;;;34.30;25.00;;;;;;;29.48;39.68;100909.35;104738;1272;59413;-76
2023/10/01 06:57:57;;;;;;;35.30;24.10;;;;;;;29.65;39.54;100907.79;104848;1272;70724;-77
2023/10/01 07:00:28;;;;;;;36.10;24.40;;;;;;;29.85;39.17;100908.09;104780;1272;63810;-76
2023/10/01 07:03:13;;;;;;;35.70;24.20;;;;;;;30.08;38.80;100910.58;104529;1273;210439;-75
2023/10/01 07:05:42;;;;;;;28.10;24.20;;;;;;;30.35;38.43;100906.92;105028;1267;60207;-75
2023/10/01 07:08:18;;;;;;;29.40;23.30;;;;;;;30.63;37.91;100910.32;104948;1265;59291;-75
2023/10/01 07:10:50;;;;;;;26.00;22.40;;;;;;;30.89;37.41;100912.21;104879;1272;71233;-76
2023/10/01 07:13:19;;;;;;;35.90;24.70;;;;;;;31.10;36.96;100911.19;105550;1258;61814;-78
2023/10/01 07:15:48;;;;;;;33.40;23.80;;;;;;;31.29;36.46;100915.86;105282;1257;71709;-76
2023/10/01 07:18:19;;;;;;;33.40;26.30;;;;;;;31.48;35.98;100912.95;105344;1257;59819;-77
2023/10/01 07:20:49;;;;;;;37.30;24.80;;;;;;;31.68;35.65;100910.09;105373;1258;60565;-75
2023/10/01 07:23:21;;;;;;;34.80;25.70;;;;;;;31.90;35.10;100911.35;105355;1264;73185;-77
2023/10/01 07:26:00;;;;;;;35.50;26.40;;;;;;;32.16;34.33;100905.23;105553;1262;63781;-77
2023/10/01 07:28:28;;;;;;;35.60;27.50;;;;;;;32.46;33.58;100902.00;105479;1257;71401;-77
2023/10/01 07:31:02;;;;;;;40.90;27.10;;;;;;;32.63;33.28;100902.48;105491;1260;59689;-79
2023/10/01 07:33:31;;;;;;;42.50;30.00;;;;;;;32.86;32.67;100905.23;105408;1258;59730;-77
2023/10/01 07:36:01;;;;;;;37.30;28.30;;;;;;;33.08;32.40;100905.27;105527;1259;71630;-75
2023/10/01 07:38:31;;;;;;;37.60;29.00;;;;;;;33.18;31.90;100902.69;105395;1261;63734;-79
2023/10/01 07:40:58;;;;;;;39.90;29.50;;;;;;;33.05;31.91;100902.64;105440;1263;71507;-77
2023/10/01 07:43:28;;;;;;;40.10;28.50;;;;;;;32.89;32.41;100900.95;105308;1258;59736;-76
2023/10/01 07:45:58;;;;;;;40.00;26.40;;;;;;;32.74;32.84;100898.94;105337;1268;59557;-76
2023/10/01 07:48:27;;;;;;;36.90;26.60;;;;;;;32.64;33.02;100901.52;105288;1259;73217;-79
2023/10/01 07:50:55;;;;;;;29.50;25.40;;;;;;;32.67;33.42;100897.09;105363;1262;63955;-77
2023/10/01 07:53:23;;;;;;;35.60;26.60;;;;;;;32.64;33.42;100893.54;105386;1262;72368;-78
2023/10/01 07:55:51;;;;;;;34.90;25.20;;;;;;;32.55;33.68;100891.61;105705;1255;59856;-79
2023/10/01 07:58:25;;;;;;;36.80;24.50;;;;;;;32.45;33.76;100886.38;105830;1257;59717;-77
2023/10/01 08:00:59;;;;;;;39.30;24.90;;;;;;;32.50;33.50;100884.61;105744;1260;72955;-78
2023/10/01 08:06:10;;;;;;;31.40;24.00;;;;;;;32.55;33.19;100883.97;105892;1254;71538;-76
2023/10/01 08:08:45;;;;;;;41.10;25.50;;;;;;;32.69;33.00;100881.13;105710;1254;60058;-76
2023/10/01 08:14:02;;;;;;;34.30;24.10;;;;;;;33.13;31.62;100872.66;105674;1258;73237;-80
2023/10/01 08:16:29;;;;;;;32.20;21.80;;;;;;;33.16;31.28;100870.27;105694;1257;62633;-79
2023/10/01 08:19:05;;;;;;;29.10;20.90;;;;;;;33.18;30.79;100868.98;105769;1254;72703;-76
2023/10/01 08:21:37;;;;;;;34.30;21.50;;;;;;;33.43;30.85;100868.45;105745;1255;59656;-77
2023/10/01 08:24:09;;;;;;;30.10;18.90;;;;;;;33.78;30.00;100867.94;105732;1258;59651;-75
2023/10/01 08:26:43;;;;;;;25.50;17.10;;;;;;;34.05;29.36;100863.10;105762;1257;72157;-77
2023/10/01 08:29:15;;;;;;;29.70;18.10;;;;;;;34.33;28.76;100858.53;105763;1254;62930;-78
2023/10/01 08:32:07;;;;;;;27.50;16.40;;;;;;;34.61;28.03;100855.50;105778;1254;71249;-75
2023/10/01 08:34:54;;;;;;;31.40;18.00;;;;;;;34.86;27.52;100852.39;105824;1254;59752;-77
2023/10/01 08:37:22;;;;;;;34.30;19.10;;;;;;;35.09;26.95;100851.71;105744;1254;59639;-77
2023/10/01 08:39:53;;;;;;;32.00;17.60;;;;;;;35.10;26.08;100846.95;105695;1257;73170;-79
2023/10/01 08:42:28;;;;;;;27.60;18.00;;;;;;;35.00;25.91;100846.40;105740;1257;62436;-74
2023/10/01 08:45:04;;;;;;;32.80;17.40;;;;;;;35.08;25.95;100848.36;105742;1254;72752;-73
2023/10/01 08:47:34;;;;;;;36.70;17.70;;;;;;;35.32;25.83;100844.16;106218;1254;59644;-78
2023/10/01 08:53:01;;;;;;;40.50;18.00;;;;;;;35.41;25.55;100845.75;105680;1254;71836;-78
2023/10/01 08:56:32;;;;;;;38.00;17.50;;;;;;;35.45;25.17;100846.95;105654;1257;63037;-76
2023/10/01 09:00:52;;;;;;;31.50;18.10;;;;;;;35.54;24.95;100845.00;105690;1254;59635;-74
2023/10/01 09:03:28;;;;;;;37.70;20.00;;;;;;;35.65;24.95;100842.43;105648;1257;60003;-76
2023/10/01 09:06:03;;;;;;;33.90;16.50;;;;;;;35.74;24.82;100838.07;105656;1257;73181;-74
2023/10/01 09:08:45;;;;;;;34.80;17.90;;;;;;;35.93;24.52;100834.84;105814;1258;63699;-75
2023/10/01 09:11:14;;;;;;;36.50;18.30;;;;;;;36.19;24.34;100827.89;105643;1254;72552;-76
2023/10/01 09:13:45;;;;;;;32.70;17.30;;;;;;;36.32;24.14;100828.18;105718;1260;59662;-76
2023/10/01 09:16:15;;;;;;;28.40;16.40;;;;;;;36.31;24.02;100825.17;106134;1253;60030;-76
2023/10/01 09:19:29;;;;;;;45.70;17.30;;;;;;;36.41;24.12;100827.17;105929;1252;64244;-74
2023/10/01 09:21:50;;;;;;;28.50;16.30;;;;;;;36.56;23.87;100821.48;106308;1254;59753;-76
2023/10/01 09:24:38;;;;;;;30.90;16.90;;;;;;;36.63;23.69;100815.48;105772;1258;62906;-78
2023/10/01 09:27:18;;;;;;;31.40;16.80;;;;;;;36.66;23.48;100815.39;105661;1254;60147;-74
2023/10/01 09:29:48;;;;;;;28.10;15.20;;;;;;;36.66;23.38;100815.67;105750;1254;59742;-75
2023/10/01 09:32:19;;;;;;;26.50;15.40;;;;;;;36.68;23.17;100813.48;105742;1255;64090;-76
2023/10/01 09:34:53;;;;;;;24.20;14.60;;;;;;;36.71;22.94;100810.08;105779;1254;59759;-77
2023/10/01 09:37:56;;;;;;;29.70;15.10;;;;;;;36.84;23.09;100808.04;105691;1254;63500;-77
2023/10/01 09:43:02;;;;;;;25.40;14.60;;;;;;;37.17;22.56;100803.79;105664;1257;59579;-76
2023/10/01 09:45:38;;;;;;;27.50;14.20;;;;;;;37.36;22.12;100801.41;105769;1253;71891;-76
2023/10/01 09:48:09;;;;;;;21.30;13.20;;;;;;;37.47;21.67;100805.95;105696;1254;59712;-76
2023/10/01 09:50:44;;;;;;;22.50;11.80;;;;;;;37.51;21.49;100801.86;105641;1257;62654;-78
2023/10/01 09:53:14;;;;;;;20.20;12.30;;;;;;;37.52;21.59;100802.86;105664;1257;59653;-76
2023/10/01 09:55:47;;;;;;;22.20;10.90;;;;;;;37.49;21.33;100797.09;105619;1253;59650;-76
2023/10/01 09:58:24;;;;;;;18.50;9.90;;;;;;;37.50;21.14;100793.43;105648;1257;62944;-75
2023/10/01 10:01:01;;;;;;;16.40;9.60;;;;;;;37.66;20.63;100789.89;105770;1257;64542;-76
2023/10/01 10:03:38;;;;;;;15.30;9.90;;;;;;;37.84;20.38;100795.04;105680;1257;71049;-75
2023/10/01 10:06:06;;;;;;;25.30;10.00;;;;;;;37.93;20.46;100790.35;105721;1257;59711;-77
2023/10/01 10:08:34;;;;;;;12.10;8.10;;;;;;;38.03;20.19;100788.08;105763;1254;59656;-75
2023/10/01 10:11:06;;;;;;;17.00;8.30;;;;;;;38.08;19.69;100788.33;105703;1257;64159;-78
2023/10/01 10:13:45;;;;;;;18.00;8.40;;;;;;;38.08;20.19;100788.70;105738;1254;59778;-73
2023/10/01 10:16:30;;;;;;;13.30;7.20;;;;;;;38.06;20.20;100785.91;105828;1254;63843;-78
2023/10/01 10:19:12;;;;;;;15.70;7.00;;;;;;;38.09;19.68;100784.55;105782;1254;59742;-80
2023/10/01 10:24:29;;;;;;;18.90;8.70;;;;;;;38.26;19.35;100772.57;105775;1254;63132;-78
2023/10/01 10:26:56;;;;;;;15.60;7.90;;;;;;;38.33;19.61;100772.34;105775;1257;59781;-77
2023/10/01 10:29:24;;;;;;;13.80;7.70;;;;;;;38.41;19.32;100771.85;105786;1254;63839;-77
2023/10/01 10:32:10;;;;;;;12.50;7.50;;;;;;;38.47;19.31;100772.84;105754;1256;59753;-76
2023/10/01 10:34:47;;;;;;;15.50;8.10;;;;;;;38.53;19.61;100767.71;105686;1253;60423;-76
2023/10/01 10:37:35;;;;;;;14.40;7.40;;;;;;;38.59;19.56;100763.63;105587;1258;62917;-80
2023/10/01 10:40:12;;;;;;;10.20;5.70;;;;;;;38.64;19.47;100760.23;105826;1254;59730;-79
2023/10/01 10:42:42;;;;;;;10.60;6.50;;;;;;;38.70;19.14;100757.48;105748;1253;64331;-77
2023/10/01 10:45:23;;;;;;;16.50;5.70;;;;;;;38.77;18.83;100754.73;105846;1255;59685;-78
2023/10/01 10:48:03;;;;;;;13.00;6.10;;;;;;;38.76;18.98;100754.34;105766;1253;59772;-77
2023/10/01 10:50:53;;;;;;;13.00;5.50;;;;;;;38.63;18.87;100752.34;105740;1257;64224;-78
2023/10/01 10:53:42;;;;;;;11.00;4.50;;;;;;;38.51;18.47;100743.42;105796;1257;59617;-78
2023/10/01 10:56:13;;;;;;;11.40;5.10;;;;;;;38.50;18.35;100743.09;105744;1254;63879;-78
2023/10/01 10:59:01;;;;;;;9.80;4.50;;;;;;;38.49;18.33;100742.60;105866;1253;60085;-78
2023/10/01 11:01:44;;;;;;;7.40;4.70;;;;;;;38.45;18.28;100740.17;105835;1256;59598;-77
2023/10/01 11:04:15;;;;;;;13.50;4.60;;;;;;;38.33;18.28;100730.73;105737;1257;63017;-78
2023/10/01 11:06:43;;;;;;;14.60;7.00;;;;;;;38.17;18.70;100729.49;105840;1257;59672;-75
2023/10/01 11:09:26;;;;;;;12.70;7.30;;;;;;;38.03;19.25;100726.73;105842;1257;63825;-75
2023/10/01 11:12:19;;;;;;;11.70;6.40;;;;;;;37.87;19.31;100727.52;105739;1254;60490;-77
2023/10/01 11:15:19;;;;;;;11.70;7.50;;;;;;;37.67;19.31;100724.54;105775;1254;60492;-77
2023/10/01 11:17:47;;;;;;;12.20;8.40;;;;;;;37.43;19.46;100728.45;105760;1257;64931;-79
2023/10/01 11:20:22;;;;;;;17.70;7.70;;;;;;;37.18;20.07;100727.30;105718;1257;59585;-78
2023/10/01 11:22:54;;;;;;;16.00;8.00;;;;;;;36.88;20.15;100722.60;105795;1257;63735;-77
2023/10/01 11:25:23;;;;;;;18.90;8.30;;;;;;;36.54;20.14;100719.03;105736;1259;60539;-79
2023/10/01 11:27:53;;;;;;;11.60;7.20;;;;;;;36.16;20.40;100718.23;105768;1254;59818;-78
2023/10/01 11:30:27;;;;;;;23.20;8.20;;;;;;;35.74;20.78;100715.30;105744;1257;65023;-78
2023/10/01 11:33:13;;;;;;;13.20;7.40;;;;;;;35.29;21.36;100716.42;105779;1254;60548;-80
2023/10/01 11:35:59;;;;;;;11.70;7.00;;;;;;;34.76;21.34;100717.61;105769;1254;71674;-77
2023/10/01 11:38:28;;;;;;;17.60;7.30;;;;;;;34.28;22.11;100713.20;105790;1256;60455;-77
2023/10/01 11:41:18;;;;;;;16.20;9.10;;;;;;;33.84;22.44;100710.83;105855;1253;60605;-77
2023/10/01 11:43:58;;;;;;;17.60;9.40;;;;;;;33.34;23.30;100708.46;106023;1253;75985;-80
2023/10/01 11:46:57;;;;;;;15.00;8.00;;;;;;;32.88;23.04;100708.65;105761;1257;64976;-78
2023/10/01 11:49:34;;;;;;;13.80;8.20;;;;;;;32.43;23.81;100705.96;105667;1257;71012;-80
2023/10/01 11:52:21;;;;;;;22.00;10.40;;;;;;;32.04;24.43;100700.91;105737;1260;60517;-77
2023/10/01 11:54:55;;;;;;;20.00;9.80;;;;;;;31.63;25.52;100700.78;105794;1259;60504;-77
2023/10/01 11:57:24;;;;;;;15.30;7.40;;;;;;;31.28;25.80;100702.95;105444;1262;72806;-79
2023/10/01 11:59:58;;;;;;;17.50;9.10;;;;;;;30.93;25.95;100700.66;105801;1257;64401;-78
2023/10/01 12:02:43;;;;;;;11.50;7.60;;;;;;;30.58;27.23;100702.27;105692;1258;72070;-80
2023/10/01 12:05:16;;;;;;;16.60;8.40;;;;;;;30.29;27.12;100698.98;105867;1258;60543;-74
2023/10/01 12:07:43;;;;;;;20.00;8.80;;;;;;;30.02;27.30;100697.45;106151;1257;60447;-79
2023/10/01 12:13:07;;;;;;;15.20;7.60;;;;;;;29.57;27.21;100692.16;106507;1258;62651;-76